sensor_id;sensor_type;location;lat;lon;timestamp;P1;durP1;ratioP1;P2;durP2;ratioP2
5217;SDS011;26539;51.064;6.346;2023-04-03T00:00:42;6.20;;;5.60;;
5217;SDS011;26539;51.064;6.346;2023-04-03T00:03:07;7.05;;;6.00;;
5217;SDS011;26539;51.064;6.346;2023-04-03T00:05:35;10.00;;;5.27;;
5217;SDS011;26539;51.064;6.346;2023-04-03T00:08:01;7.00;;;5.72;;
5217;SDS011;26539;51.064;6.346;2023-04-03T00:10:32;6.43;;;5.40;;
5217;SDS011;26539;51.064;6.346;2023-04-03T00:12:58;6.37;;;5.77;;
5217;SDS011;26539;51.064;6.346;2023-04-03T00:15:24;6.33;;;5.60;;
5217;SDS011;26539;51.064;6.346;2023-04-03T00:17:50;5.53;;;5.03;;
5217;SDS011;26539;51.064;6.346;2023-04-03T00:20:15;8.93;;;6.83;;
5217;SDS011;26539;51.064;6.346;2023-04-03T00:22:41;7.70;;;5.77;;
5217;SDS011;26539;51.064;6.346;2023-04-03T00:25:07;7.47;;;5.70;;
5217;SDS011;26539;51.064;6.346;2023-04-03T00:27:33;7.88;;;5.85;;
5217;SDS011;26539;51.064;6.346;2023-04-03T00:30:02;9.32;;;6.03;;
5217;SDS011;26539;51.064;6.346;2023-04-03T00:32:31;6.43;;;5.82;;
5217;SDS011;26539;51.064;6.346;2023-04-03T00:34:57;9.30;;;6.40;;
5217;SDS011;26539;51.064;6.346;2023-04-03T00:37:23;7.73;;;6.10;;
5217;SDS011;26539;51.064;6.346;2023-04-03T00:39:48;6.77;;;6.07;;
5217;SDS011;26539;51.064;6.346;2023-04-03T00:42:14;9.90;;;6.17;;
5217;SDS011;26539;51.064;6.346;2023-04-03T00:47:06;6.20;;;5.57;;
5217;SDS011;26539;51.064;6.346;2023-04-03T00:49:33;8.77;;;6.45;;
5217;SDS011;26539;51.064;6.346;2023-04-03T00:52:00;8.93;;;5.60;;
5217;SDS011;26539;51.064;6.346;2023-04-03T00:54:27;6.72;;;5.60;;
5217;SDS011;26539;51.064;6.346;2023-04-03T00:56:53;9.23;;;6.27;;
5217;SDS011;26539;51.064;6.346;2023-04-03T00:59:25;7.25;;;6.55;;
5217;SDS011;26539;51.064;6.346;2023-04-03T01:01:57;8.73;;;6.90;;
5217;SDS011;26539;51.064;6.346;2023-04-03T01:04:35;11.68;;;6.05;;
5217;SDS011;26539;51.064;6.346;2023-04-03T01:07:04;8.98;;;7.10;;
5217;SDS011;26539;51.064;6.346;2023-04-03T01:09:34;8.23;;;7.03;;
5217;SDS011;26539;51.064;6.346;2023-04-03T01:14:55;7.03;;;6.28;;
5217;SDS011;26539;51.064;6.346;2023-04-03T01:20:07;10.82;;;7.32;;
5217;SDS011;26539;51.064;6.346;2023-04-03T01:25:30;7.35;;;6.50;;
5217;SDS011;26539;51.064;6.346;2023-04-03T01:27:57;10.38;;;7.38;;
5217;SDS011;26539;51.064;6.346;2023-04-03T01:30:24;10.37;;;7.13;;
5217;SDS011;26539;51.064;6.346;2023-04-03T01:32:55;8.23;;;6.63;;
5217;SDS011;26539;51.064;6.346;2023-04-03T01:35:21;9.47;;;6.93;;
5217;SDS011;26539;51.064;6.346;2023-04-03T01:37:46;8.40;;;7.57;;
5217;SDS011;26539;51.064;6.346;2023-04-03T01:40:12;7.70;;;6.80;;
5217;SDS011;26539;51.064;6.346;2023-04-03T01:42:37;12.73;;;6.70;;
5217;SDS011;26539;51.064;6.346;2023-04-03T01:45:10;12.10;;;8.53;;
5217;SDS011;26539;51.064;6.346;2023-04-03T01:47:38;10.07;;;7.60;;
5217;SDS011;26539;51.064;6.346;2023-04-03T01:50:04;9.33;;;7.93;;
5217;SDS011;26539;51.064;6.346;2023-04-03T01:52:30;9.25;;;7.63;;
5217;SDS011;26539;51.064;6.346;2023-04-03T01:54:55;13.00;;;9.10;;
5217;SDS011;26539;51.064;6.346;2023-04-03T01:57:21;10.07;;;8.53;;
5217;SDS011;26539;51.064;6.346;2023-04-03T01:59:47;10.20;;;8.60;;
5217;SDS011;26539;51.064;6.346;2023-04-03T02:02:12;13.00;;;8.70;;
5217;SDS011;26539;51.064;6.346;2023-04-03T02:04:39;9.85;;;8.85;;
5217;SDS011;26539;51.064;6.346;2023-04-03T02:07:05;10.90;;;9.20;;
5217;SDS011;26539;51.064;6.346;2023-04-03T02:09:31;13.33;;;9.00;;
5217;SDS011;26539;51.064;6.346;2023-04-03T02:11:56;12.27;;;8.97;;
5217;SDS011;26539;51.064;6.346;2023-04-03T02:14:22;13.47;;;8.33;;
5217;SDS011;26539;51.064;6.346;2023-04-03T02:16:48;12.00;;;9.07;;
5217;SDS011;26539;51.064;6.346;2023-04-03T02:19:17;10.57;;;9.23;;
5217;SDS011;26539;51.064;6.346;2023-04-03T02:21:57;12.38;;;9.23;;
5217;SDS011;26539;51.064;6.346;2023-04-03T02:24:22;10.43;;;8.40;;
5217;SDS011;26539;51.064;6.346;2023-04-03T02:26:48;13.43;;;8.40;;
5217;SDS011;26539;51.064;6.346;2023-04-03T02:29:13;11.97;;;9.00;;
5217;SDS011;26539;51.064;6.346;2023-04-03T02:31:39;9.10;;;7.90;;
5217;SDS011;26539;51.064;6.346;2023-04-03T02:34:05;11.90;;;7.90;;
5217;SDS011;26539;51.064;6.346;2023-04-03T02:36:30;12.77;;;8.43;;
5217;SDS011;26539;51.064;6.346;2023-04-03T02:38:56;10.10;;;8.50;;
5217;SDS011;26539;51.064;6.346;2023-04-03T02:41:21;10.33;;;8.20;;
5217;SDS011;26539;51.064;6.346;2023-04-03T02:43:47;12.13;;;8.77;;
5217;SDS011;26539;51.064;6.346;2023-04-03T02:46:32;9.00;;;8.00;;
5217;SDS011;26539;51.064;6.346;2023-04-03T02:48:58;9.60;;;7.68;;
5217;SDS011;26539;51.064;6.346;2023-04-03T02:51:24;8.38;;;7.25;;
5217;SDS011;26539;51.064;6.346;2023-04-03T02:53:50;12.57;;;8.40;;
5217;SDS011;26539;51.064;6.346;2023-04-03T02:56:16;9.90;;;8.73;;
5217;SDS011;26539;51.064;6.346;2023-04-03T02:58:43;10.68;;;8.85;;
5217;SDS011;26539;51.064;6.346;2023-04-03T03:01:09;9.10;;;8.20;;
5217;SDS011;26539;51.064;6.346;2023-04-03T03:03:35;15.67;;;7.90;;
5217;SDS011;26539;51.064;6.346;2023-04-03T03:06:01;10.70;;;8.40;;
5217;SDS011;26539;51.064;6.346;2023-04-03T03:08:28;9.73;;;7.97;;
5217;SDS011;26539;51.064;6.346;2023-04-03T03:10:54;12.30;;;8.90;;
5217;SDS011;26539;51.064;6.346;2023-04-03T03:13:19;10.63;;;8.27;;
5217;SDS011;26539;51.064;6.346;2023-04-03T03:15:45;11.10;;;8.53;;
5217;SDS011;26539;51.064;6.346;2023-04-03T03:18:10;11.23;;;8.70;;
5217;SDS011;26539;51.064;6.346;2023-04-03T03:20:36;11.83;;;9.53;;
5217;SDS011;26539;51.064;6.346;2023-04-03T03:23:01;13.37;;;9.03;;
5217;SDS011;26539;51.064;6.346;2023-04-03T03:25:27;11.77;;;7.70;;
5217;SDS011;26539;51.064;6.346;2023-04-03T03:27:52;9.67;;;8.07;;
5217;SDS011;26539;51.064;6.346;2023-04-03T03:30:18;15.83;;;8.63;;
5217;SDS011;26539;51.064;6.346;2023-04-03T03:32:44;19.73;;;8.00;;
5217;SDS011;26539;51.064;6.346;2023-04-03T03:35:10;8.80;;;7.57;;
5217;SDS011;26539;51.064;6.346;2023-04-03T03:37:35;9.55;;;7.88;;
5217;SDS011;26539;51.064;6.346;2023-04-03T03:40:01;9.07;;;7.27;;
5217;SDS011;26539;51.064;6.346;2023-04-03T03:42:29;9.65;;;8.25;;
5217;SDS011;26539;51.064;6.346;2023-04-03T03:44:58;11.23;;;8.65;;
5217;SDS011;26539;51.064;6.346;2023-04-03T03:47:23;9.80;;;7.40;;
5217;SDS011;26539;51.064;6.346;2023-04-03T03:49:49;10.23;;;7.37;;
5217;SDS011;26539;51.064;6.346;2023-04-03T03:52:14;9.33;;;7.73;;
5217;SDS011;26539;51.064;6.346;2023-04-03T03:54:40;10.83;;;7.53;;
5217;SDS011;26539;51.064;6.346;2023-04-03T03:57:06;12.23;;;8.40;;
5217;SDS011;26539;51.064;6.346;2023-04-03T03:59:31;8.93;;;7.53;;
5217;SDS011;26539;51.064;6.346;2023-04-03T04:01:57;10.90;;;8.53;;
5217;SDS011;26539;51.064;6.346;2023-04-03T04:04:22;9.90;;;7.50;;
5217;SDS011;26539;51.064;6.346;2023-04-03T04:06:48;12.90;;;8.80;;
5217;SDS011;26539;51.064;6.346;2023-04-03T04:09:13;11.30;;;8.10;;
5217;SDS011;26539;51.064;6.346;2023-04-03T04:11:39;10.93;;;8.67;;
5217;SDS011;26539;51.064;6.346;2023-04-03T04:14:05;12.67;;;8.80;;
5217;SDS011;26539;51.064;6.346;2023-04-03T04:16:31;11.13;;;8.02;;
5217;SDS011;26539;51.064;6.346;2023-04-03T04:18:57;9.27;;;8.30;;
5217;SDS011;26539;51.064;6.346;2023-04-03T04:21:22;12.23;;;8.60;;
5217;SDS011;26539;51.064;6.346;2023-04-03T04:23:48;12.60;;;9.87;;
5217;SDS011;26539;51.064;6.346;2023-04-03T04:26:13;14.87;;;8.50;;
5217;SDS011;26539;51.064;6.346;2023-04-03T04:28:39;12.93;;;8.80;;
5217;SDS011;26539;51.064;6.346;2023-04-03T04:31:04;10.90;;;8.43;;
5217;SDS011;26539;51.064;6.346;2023-04-03T04:33:30;14.50;;;9.00;;
5217;SDS011;26539;51.064;6.346;2023-04-03T04:35:55;11.33;;;8.53;;
5217;SDS011;26539;51.064;6.346;2023-04-03T04:38:21;17.63;;;8.40;;
5217;SDS011;26539;51.064;6.346;2023-04-03T04:40:47;12.13;;;7.77;;
5217;SDS011;26539;51.064;6.346;2023-04-03T04:43:13;11.07;;;7.90;;
5217;SDS011;26539;51.064;6.346;2023-04-03T04:45:39;11.77;;;7.60;;
5217;SDS011;26539;51.064;6.346;2023-04-03T04:48:05;12.98;;;9.32;;
5217;SDS011;26539;51.064;6.346;2023-04-03T04:50:31;13.80;;;8.37;;
5217;SDS011;26539;51.064;6.346;2023-04-03T04:52:57;13.00;;;9.30;;
5217;SDS011;26539;51.064;6.346;2023-04-03T04:55:22;11.93;;;8.43;;
5217;SDS011;26539;51.064;6.346;2023-04-03T04:57:48;14.40;;;8.50;;
5217;SDS011;26539;51.064;6.346;2023-04-03T05:00:13;15.47;;;9.40;;
5217;SDS011;26539;51.064;6.346;2023-04-03T05:02:43;11.63;;;8.30;;
5217;SDS011;26539;51.064;6.346;2023-04-03T05:05:08;14.03;;;8.30;;
5217;SDS011;26539;51.064;6.346;2023-04-03T05:07:34;12.33;;;7.73;;
5217;SDS011;26539;51.064;6.346;2023-04-03T05:10:03;11.95;;;8.50;;
5217;SDS011;26539;51.064;6.346;2023-04-03T05:12:32;9.23;;;7.05;;
5217;SDS011;26539;51.064;6.346;2023-04-03T05:14:57;9.90;;;7.50;;
5217;SDS011;26539;51.064;6.346;2023-04-03T05:17:23;11.93;;;7.40;;
5217;SDS011;26539;51.064;6.346;2023-04-03T05:19:48;10.40;;;7.50;;
5217;SDS011;26539;51.064;6.346;2023-04-03T05:22:14;8.70;;;6.80;;
5217;SDS011;26539;51.064;6.346;2023-04-03T05:24:40;11.70;;;6.90;;
5217;SDS011;26539;51.064;6.346;2023-04-03T05:27:05;9.13;;;6.83;;
5217;SDS011;26539;51.064;6.346;2023-04-03T05:29:31;10.47;;;7.10;;
5217;SDS011;26539;51.064;6.346;2023-04-03T05:31:56;9.77;;;6.33;;
5217;SDS011;26539;51.064;6.346;2023-04-03T05:34:27;7.90;;;6.47;;
5217;SDS011;26539;51.064;6.346;2023-04-03T05:36:53;10.70;;;7.35;;
5217;SDS011;26539;51.064;6.346;2023-04-03T05:39:18;11.00;;;5.97;;
5217;SDS011;26539;51.064;6.346;2023-04-03T05:41:48;8.20;;;5.65;;
5217;SDS011;26539;51.064;6.346;2023-04-03T05:44:18;8.23;;;5.85;;
5217;SDS011;26539;51.064;6.346;2023-04-03T05:46:44;12.40;;;6.00;;
5217;SDS011;26539;51.064;6.346;2023-04-03T05:49:17;10.93;;;6.17;;
5217;SDS011;26539;51.064;6.346;2023-04-03T05:52:10;13.43;;;5.97;;
5217;SDS011;26539;51.064;6.346;2023-04-03T05:54:51;9.17;;;5.37;;
5217;SDS011;26539;51.064;6.346;2023-04-03T05:57:20;6.27;;;4.53;;
5217;SDS011;26539;51.064;6.346;2023-04-03T06:00:03;6.87;;;4.67;;
5217;SDS011;26539;51.064;6.346;2023-04-03T06:02:37;6.10;;;4.10;;
5217;SDS011;26539;51.064;6.346;2023-04-03T06:05:06;6.50;;;4.33;;
5217;SDS011;26539;51.064;6.346;2023-04-03T06:07:36;8.90;;;4.20;;
5217;SDS011;26539;51.064;6.346;2023-04-03T06:10:02;7.03;;;3.90;;
5217;SDS011;26539;51.064;6.346;2023-04-03T06:12:34;7.70;;;4.37;;
5217;SDS011;26539;51.064;6.346;2023-04-03T06:15:06;4.17;;;3.27;;
5217;SDS011;26539;51.064;6.346;2023-04-03T06:17:44;5.57;;;3.53;;
5217;SDS011;26539;51.064;6.346;2023-04-03T06:20:16;4.30;;;3.87;;
5217;SDS011;26539;51.064;6.346;2023-04-03T06:22:47;6.10;;;3.73;;
5217;SDS011;26539;51.064;6.346;2023-04-03T06:25:18;6.33;;;4.13;;
5217;SDS011;26539;51.064;6.346;2023-04-03T06:27:46;5.87;;;3.70;;
5217;SDS011;26539;51.064;6.346;2023-04-03T06:30:26;5.53;;;3.30;;
5217;SDS011;26539;51.064;6.346;2023-04-03T06:33:03;5.87;;;3.90;;
5217;SDS011;26539;51.064;6.346;2023-04-03T06:35:34;5.23;;;3.40;;
5217;SDS011;26539;51.064;6.346;2023-04-03T06:38:06;8.47;;;3.80;;
5217;SDS011;26539;51.064;6.346;2023-04-03T06:40:36;6.83;;;3.30;;
5217;SDS011;26539;51.064;6.346;2023-04-03T06:43:12;6.17;;;3.13;;
5217;SDS011;26539;51.064;6.346;2023-04-03T06:45:46;4.47;;;3.70;;
5217;SDS011;26539;51.064;6.346;2023-04-03T06:48:12;5.57;;;3.53;;
5217;SDS011;26539;51.064;6.346;2023-04-03T06:50:59;4.50;;;3.47;;
5217;SDS011;26539;51.064;6.346;2023-04-03T06:53:25;5.63;;;3.27;;
5217;SDS011;26539;51.064;6.346;2023-04-03T06:56:00;5.27;;;3.93;;
5217;SDS011;26539;51.064;6.346;2023-04-03T06:58:25;6.20;;;4.00;;
5217;SDS011;26539;51.064;6.346;2023-04-03T07:00:51;5.67;;;3.27;;
5217;SDS011;26539;51.064;6.346;2023-04-03T07:03:22;6.03;;;3.60;;
5217;SDS011;26539;51.064;6.346;2023-04-03T07:05:54;6.97;;;3.00;;
5217;SDS011;26539;51.064;6.346;2023-04-03T07:08:22;5.27;;;3.20;;
5217;SDS011;26539;51.064;6.346;2023-04-03T07:10:51;6.80;;;3.60;;
5217;SDS011;26539;51.064;6.346;2023-04-03T07:13:16;6.23;;;3.40;;
5217;SDS011;26539;51.064;6.346;2023-04-03T07:15:44;5.50;;;3.07;;
5217;SDS011;26539;51.064;6.346;2023-04-03T07:18:19;5.50;;;2.97;;
5217;SDS011;26539;51.064;6.346;2023-04-03T07:20:59;5.87;;;3.00;;
5217;SDS011;26539;51.064;6.346;2023-04-03T07:23:28;4.77;;;3.00;;
5217;SDS011;26539;51.064;6.346;2023-04-03T07:25:54;4.60;;;2.80;;
5217;SDS011;26539;51.064;6.346;2023-04-03T07:28:21;4.23;;;3.23;;
5217;SDS011;26539;51.064;6.346;2023-04-03T07:30:53;5.80;;;3.50;;
5217;SDS011;26539;51.064;6.346;2023-04-03T07:33:27;4.93;;;3.20;;
5217;SDS011;26539;51.064;6.346;2023-04-03T07:35:58;4.83;;;2.97;;
5217;SDS011;26539;51.064;6.346;2023-04-03T07:38:25;6.33;;;3.43;;
5217;SDS011;26539;51.064;6.346;2023-04-03T07:40:54;5.20;;;3.53;;
5217;SDS011;26539;51.064;6.346;2023-04-03T07:43:27;4.57;;;3.40;;
5217;SDS011;26539;51.064;6.346;2023-04-03T07:45:56;8.10;;;3.90;;
5217;SDS011;26539;51.064;6.346;2023-04-03T07:48:22;4.00;;;3.60;;
5217;SDS011;26539;51.064;6.346;2023-04-03T07:50:49;5.07;;;2.67;;
5217;SDS011;26539;51.064;6.346;2023-04-03T07:53:14;6.73;;;3.90;;
5217;SDS011;26539;51.064;6.346;2023-04-03T07:55:47;5.33;;;2.80;;
5217;SDS011;26539;51.064;6.346;2023-04-03T07:58:20;4.70;;;2.73;;
5217;SDS011;26539;51.064;6.346;2023-04-03T08:00:53;6.23;;;3.00;;
5217;SDS011;26539;51.064;6.346;2023-04-03T08:03:19;7.33;;;2.90;;
5217;SDS011;26539;51.064;6.346;2023-04-03T08:06:00;6.47;;;2.70;;
5217;SDS011;26539;51.064;6.346;2023-04-03T08:08:29;5.40;;;2.70;;
5217;SDS011;26539;51.064;6.346;2023-04-03T08:11:01;5.87;;;3.33;;
5217;SDS011;26539;51.064;6.346;2023-04-03T08:13:28;5.13;;;2.80;;
5217;SDS011;26539;51.064;6.346;2023-04-03T08:15:57;5.03;;;2.53;;
5217;SDS011;26539;51.064;6.346;2023-04-03T08:18:31;6.93;;;2.47;;
5217;SDS011;26539;51.064;6.346;2023-04-03T08:21:08;4.63;;;2.70;;
5217;SDS011;26539;51.064;6.346;2023-04-03T08:23:38;2.37;;;2.10;;
5217;SDS011;26539;51.064;6.346;2023-04-03T08:26:07;5.73;;;2.77;;
5217;SDS011;26539;51.064;6.346;2023-04-03T08:28:42;3.97;;;2.40;;
5217;SDS011;26539;51.064;6.346;2023-04-03T08:31:14;4.00;;;2.40;;
5217;SDS011;26539;51.064;6.346;2023-04-03T08:33:47;6.10;;;2.30;;
5217;SDS011;26539;51.064;6.346;2023-04-03T08:36:19;5.07;;;2.80;;
5217;SDS011;26539;51.064;6.346;2023-04-03T08:38:47;7.37;;;2.53;;
5217;SDS011;26539;51.064;6.346;2023-04-03T08:41:31;4.17;;;2.20;;
5217;SDS011;26539;51.064;6.346;2023-04-03T08:49:31;4.40;;;2.47;;
5217;SDS011;26539;51.064;6.346;2023-04-03T08:52:13;4.60;;;1.70;;
5217;SDS011;26539;51.064;6.346;2023-04-03T08:57:59;4.30;;;1.50;;
5217;SDS011;26539;51.064;6.346;2023-04-03T09:00:30;2.43;;;1.40;;
5217;SDS011;26539;51.064;6.346;2023-04-03T09:03:14;3.87;;;1.67;;
5217;SDS011;26539;51.064;6.346;2023-04-03T09:11:27;2.27;;;1.33;;
5217;SDS011;26539;51.064;6.346;2023-04-03T09:20:24;3.87;;;1.87;;
5217;SDS011;26539;51.064;6.346;2023-04-03T09:23:16;4.47;;;1.83;;
5217;SDS011;26539;51.064;6.346;2023-04-03T09:25:56;5.10;;;1.83;;
5217;SDS011;26539;51.064;6.346;2023-04-03T09:28:31;4.17;;;1.77;;
5217;SDS011;26539;51.064;6.346;2023-04-03T09:31:00;3.00;;;1.30;;
5217;SDS011;26539;51.064;6.346;2023-04-03T09:33:39;6.10;;;1.73;;
5217;SDS011;26539;51.064;6.346;2023-04-03T09:36:06;4.70;;;1.47;;
5217;SDS011;26539;51.064;6.346;2023-04-03T09:38:36;5.20;;;1.23;;
5217;SDS011;26539;51.064;6.346;2023-04-03T09:41:14;3.30;;;2.03;;
5217;SDS011;26539;51.064;6.346;2023-04-03T09:43:43;4.23;;;1.90;;
5217;SDS011;26539;51.064;6.346;2023-04-03T09:48:58;3.20;;;1.63;;
5217;SDS011;26539;51.064;6.346;2023-04-03T09:51:32;4.50;;;1.20;;
5217;SDS011;26539;51.064;6.346;2023-04-03T09:54:26;2.80;;;1.50;;
5217;SDS011;26539;51.064;6.346;2023-04-03T09:57:01;2.43;;;1.47;;
5217;SDS011;26539;51.064;6.346;2023-04-03T09:59:47;2.40;;;1.50;;
5217;SDS011;26539;51.064;6.346;2023-04-03T10:02:39;2.90;;;1.50;;
5217;SDS011;26539;51.064;6.346;2023-04-03T10:05:37;4.53;;;1.63;;
5217;SDS011;26539;51.064;6.346;2023-04-03T10:10:48;3.20;;;1.40;;
5217;SDS011;26539;51.064;6.346;2023-04-03T10:13:32;3.17;;;1.40;;
5217;SDS011;26539;51.064;6.346;2023-04-03T10:16:03;3.77;;;1.23;;
5217;SDS011;26539;51.064;6.346;2023-04-03T10:22:00;3.90;;;1.60;;
5217;SDS011;26539;51.064;6.346;2023-04-03T10:27:31;2.90;;;1.70;;
5217;SDS011;26539;51.064;6.346;2023-04-03T10:39:00;2.30;;;1.60;;
5217;SDS011;26539;51.064;6.346;2023-04-03T10:44:31;3.63;;;1.17;;
5217;SDS011;26539;51.064;6.346;2023-04-03T10:50:29;2.97;;;1.40;;
5217;SDS011;26539;51.064;6.346;2023-04-03T10:53:21;4.17;;;1.57;;
5217;SDS011;26539;51.064;6.346;2023-04-03T10:56:15;3.50;;;1.43;;
5217;SDS011;26539;51.064;6.346;2023-04-03T10:59:06;4.43;;;2.93;;
5217;SDS011;26539;51.064;6.346;2023-04-03T11:02:06;2.37;;;1.37;;
5217;SDS011;26539;51.064;6.346;2023-04-03T11:04:50;2.93;;;1.30;;
5217;SDS011;26539;51.064;6.346;2023-04-03T11:07:32;4.13;;;1.40;;
5217;SDS011;26539;51.064;6.346;2023-04-03T11:10:05;2.90;;;1.50;;
5217;SDS011;26539;51.064;6.346;2023-04-03T11:12:44;3.77;;;1.37;;
5217;SDS011;26539;51.064;6.346;2023-04-03T11:15:20;2.80;;;1.30;;
5217;SDS011;26539;51.064;6.346;2023-04-03T11:18:10;2.80;;;1.30;;
5217;SDS011;26539;51.064;6.346;2023-04-03T11:20:42;3.77;;;1.90;;
5217;SDS011;26539;51.064;6.346;2023-04-03T11:23:23;2.33;;;1.20;;
5217;SDS011;26539;51.064;6.346;2023-04-03T11:26:12;3.43;;;1.47;;
5217;SDS011;26539;51.064;6.346;2023-04-03T11:29:10;4.63;;;1.40;;
5217;SDS011;26539;51.064;6.346;2023-04-03T11:34:33;4.10;;;1.93;;
5217;SDS011;26539;51.064;6.346;2023-04-03T11:37:12;3.77;;;1.50;;
5217;SDS011;26539;51.064;6.346;2023-04-03T11:39:47;2.60;;;1.50;;
5217;SDS011;26539;51.064;6.346;2023-04-03T11:42:41;3.70;;;1.13;;
5217;SDS011;26539;51.064;6.346;2023-04-03T11:45:17;6.90;;;1.70;;
5217;SDS011;26539;51.064;6.346;2023-04-03T12:05:58;3.43;;;1.30;;
5217;SDS011;26539;51.064;6.346;2023-04-03T12:11:14;2.70;;;1.80;;
5217;SDS011;26539;51.064;6.346;2023-04-03T12:16:50;2.00;;;1.30;;
5217;SDS011;26539;51.064;6.346;2023-04-03T12:19:37;4.10;;;1.30;;
5217;SDS011;26539;51.064;6.346;2023-04-03T12:22:12;3.43;;;1.57;;
5217;SDS011;26539;51.064;6.346;2023-04-03T12:24:44;2.43;;;1.40;;
5217;SDS011;26539;51.064;6.346;2023-04-03T12:30:14;4.40;;;2.20;;
5217;SDS011;26539;51.064;6.346;2023-04-03T12:33:02;2.23;;;1.53;;
5217;SDS011;26539;51.064;6.346;2023-04-03T12:35:36;4.17;;;1.70;;
5217;SDS011;26539;51.064;6.346;2023-04-03T12:38:33;2.57;;;1.50;;
5217;SDS011;26539;51.064;6.346;2023-04-03T12:43:50;4.03;;;1.60;;
5217;SDS011;26539;51.064;6.346;2023-04-03T12:46:26;2.60;;;1.60;;
5217;SDS011;26539;51.064;6.346;2023-04-03T12:49:00;2.87;;;1.37;;
5217;SDS011;26539;51.064;6.346;2023-04-03T12:56:50;2.23;;;1.30;;
5217;SDS011;26539;51.064;6.346;2023-04-03T12:59:36;2.80;;;1.47;;
5217;SDS011;26539;51.064;6.346;2023-04-03T13:05:17;3.17;;;1.50;;
5217;SDS011;26539;51.064;6.346;2023-04-03T13:07:44;4.80;;;1.83;;
5217;SDS011;26539;51.064;6.346;2023-04-03T13:10:32;2.53;;;1.50;;
5217;SDS011;26539;51.064;6.346;2023-04-03T13:13:10;2.47;;;1.50;;
5217;SDS011;26539;51.064;6.346;2023-04-03T13:15:43;2.80;;;1.40;;
5217;SDS011;26539;51.064;6.346;2023-04-03T13:21:15;3.40;;;1.57;;
5217;SDS011;26539;51.064;6.346;2023-04-03T13:23:50;2.57;;;1.20;;
5217;SDS011;26539;51.064;6.346;2023-04-03T13:26:25;4.70;;;1.67;;
5217;SDS011;26539;51.064;6.346;2023-04-03T13:29:28;2.73;;;1.30;;
5217;SDS011;26539;51.064;6.346;2023-04-03T13:31:59;3.40;;;1.23;;
5217;SDS011;26539;51.064;6.346;2023-04-03T13:34:45;2.20;;;1.30;;
5217;SDS011;26539;51.064;6.346;2023-04-03T13:37:22;2.70;;;1.03;;
5217;SDS011;26539;51.064;6.346;2023-04-03T13:40:03;3.40;;;1.67;;
5217;SDS011;26539;51.064;6.346;2023-04-03T13:42:35;1.90;;;1.13;;
5217;SDS011;26539;51.064;6.346;2023-04-03T13:45:16;2.00;;;1.10;;
5217;SDS011;26539;51.064;6.346;2023-04-03T13:47:53;2.00;;;1.03;;
5217;SDS011;26539;51.064;6.346;2023-04-03T13:50:49;2.57;;;1.17;;
5217;SDS011;26539;51.064;6.346;2023-04-03T13:56:07;2.17;;;1.10;;
5217;SDS011;26539;51.064;6.346;2023-04-03T13:58:51;2.23;;;1.27;;
5217;SDS011;26539;51.064;6.346;2023-04-03T14:04:44;3.93;;;1.23;;
5217;SDS011;26539;51.064;6.346;2023-04-03T14:07:21;3.10;;;1.70;;
5217;SDS011;26539;51.064;6.346;2023-04-03T14:09:47;2.37;;;1.30;;
5217;SDS011;26539;51.064;6.346;2023-04-03T14:14:54;2.50;;;1.27;;
5217;SDS011;26539;51.064;6.346;2023-04-03T14:17:22;4.23;;;1.50;;
5217;SDS011;26539;51.064;6.346;2023-04-03T14:19:52;2.50;;;1.23;;
5217;SDS011;26539;51.064;6.346;2023-04-03T14:22:30;2.33;;;1.30;;
5217;SDS011;26539;51.064;6.346;2023-04-03T14:24:59;4.20;;;1.20;;
5217;SDS011;26539;51.064;6.346;2023-04-03T14:27:29;2.70;;;1.70;;
5217;SDS011;26539;51.064;6.346;2023-04-03T14:29:59;2.50;;;1.13;;
5217;SDS011;26539;51.064;6.346;2023-04-03T14:32:25;3.37;;;1.43;;
5217;SDS011;26539;51.064;6.346;2023-04-03T14:34:54;3.60;;;1.13;;
5217;SDS011;26539;51.064;6.346;2023-04-03T14:37:24;2.43;;;1.50;;
5217;SDS011;26539;51.064;6.346;2023-04-03T14:39:53;3.67;;;1.73;;
5217;SDS011;26539;51.064;6.346;2023-04-03T14:42:23;3.23;;;1.50;;
5217;SDS011;26539;51.064;6.346;2023-04-03T14:44:54;4.67;;;2.17;;
5217;SDS011;26539;51.064;6.346;2023-04-03T14:47:21;2.80;;;1.30;;
5217;SDS011;26539;51.064;6.346;2023-04-03T14:49:51;6.70;;;1.60;;
5217;SDS011;26539;51.064;6.346;2023-04-03T14:52:21;8.93;;;1.80;;
5217;SDS011;26539;51.064;6.346;2023-04-03T14:54:49;2.73;;;1.60;;
5217;SDS011;26539;51.064;6.346;2023-04-03T14:57:15;2.23;;;1.60;;
5217;SDS011;26539;51.064;6.346;2023-04-03T14:59:42;3.60;;;1.43;;
5217;SDS011;26539;51.064;6.346;2023-04-03T15:02:20;2.87;;;1.50;;
5217;SDS011;26539;51.064;6.346;2023-04-03T15:04:51;2.90;;;1.70;;
5217;SDS011;26539;51.064;6.346;2023-04-03T15:07:16;3.63;;;1.53;;
5217;SDS011;26539;51.064;6.346;2023-04-03T15:09:42;5.10;;;1.70;;
5217;SDS011;26539;51.064;6.346;2023-04-03T15:12:08;2.77;;;1.57;;
5217;SDS011;26539;51.064;6.346;2023-04-03T15:14:34;3.63;;;1.57;;
5217;SDS011;26539;51.064;6.346;2023-04-03T15:17:00;5.63;;;1.90;;
5217;SDS011;26539;51.064;6.346;2023-04-03T15:19:26;2.00;;;1.60;;
5217;SDS011;26539;51.064;6.346;2023-04-03T15:21:56;3.07;;;1.70;;
5217;SDS011;26539;51.064;6.346;2023-04-03T15:24:21;4.60;;;1.87;;
5217;SDS011;26539;51.064;6.346;2023-04-03T15:26:47;2.80;;;1.57;;
5217;SDS011;26539;51.064;6.346;2023-04-03T15:29:12;2.47;;;2.07;;
5217;SDS011;26539;51.064;6.346;2023-04-03T15:31:38;2.93;;;1.70;;
5217;SDS011;26539;51.064;6.346;2023-04-03T15:34:03;3.90;;;1.70;;
5217;SDS011;26539;51.064;6.346;2023-04-03T15:36:29;5.77;;;1.90;;
5217;SDS011;26539;51.064;6.346;2023-04-03T15:38:55;6.33;;;2.57;;
5217;SDS011;26539;51.064;6.346;2023-04-03T15:41:20;8.10;;;2.47;;
5217;SDS011;26539;51.064;6.346;2023-04-03T15:43:46;4.20;;;2.20;;
5217;SDS011;26539;51.064;6.346;2023-04-03T15:46:11;2.60;;;1.70;;
5217;SDS011;26539;51.064;6.346;2023-04-03T15:48:37;4.00;;;1.97;;
5217;SDS011;26539;51.064;6.346;2023-04-03T15:51:03;3.37;;;1.53;;
5217;SDS011;26539;51.064;6.346;2023-04-03T15:53:31;4.53;;;1.70;;
5217;SDS011;26539;51.064;6.346;2023-04-03T15:55:56;8.10;;;2.67;;
5217;SDS011;26539;51.064;6.346;2023-04-03T15:58:22;3.80;;;1.73;;
5217;SDS011;26539;51.064;6.346;2023-04-03T16:00:47;4.37;;;3.00;;
5217;SDS011;26539;51.064;6.346;2023-04-03T16:03:16;3.03;;;1.70;;
5217;SDS011;26539;51.064;6.346;2023-04-03T16:05:44;5.67;;;1.73;;
5217;SDS011;26539;51.064;6.346;2023-04-03T16:08:10;4.60;;;2.33;;
5217;SDS011;26539;51.064;6.346;2023-04-03T16:10:37;3.90;;;1.97;;
5217;SDS011;26539;51.064;6.346;2023-04-03T16:13:04;3.63;;;2.27;;
5217;SDS011;26539;51.064;6.346;2023-04-03T16:15:30;2.23;;;1.43;;
5217;SDS011;26539;51.064;6.346;2023-04-03T16:17:57;3.53;;;1.57;;
5217;SDS011;26539;51.064;6.346;2023-04-03T16:20:23;5.10;;;2.00;;
5217;SDS011;26539;51.064;6.346;2023-04-03T16:22:49;3.57;;;1.67;;
5217;SDS011;26539;51.064;6.346;2023-04-03T16:25:15;3.90;;;1.70;;
5217;SDS011;26539;51.064;6.346;2023-04-03T16:27:42;5.50;;;2.30;;
5217;SDS011;26539;51.064;6.346;2023-04-03T16:30:07;3.50;;;1.63;;
5217;SDS011;26539;51.064;6.346;2023-04-03T16:32:34;2.93;;;1.80;;
5217;SDS011;26539;51.064;6.346;2023-04-03T16:35:00;2.90;;;1.30;;
5217;SDS011;26539;51.064;6.346;2023-04-03T16:37:26;4.63;;;1.73;;
5217;SDS011;26539;51.064;6.346;2023-04-03T16:39:52;3.83;;;2.00;;
5217;SDS011;26539;51.064;6.346;2023-04-03T16:42:18;7.97;;;2.40;;
5217;SDS011;26539;51.064;6.346;2023-04-03T16:44:43;6.43;;;2.20;;
5217;SDS011;26539;51.064;6.346;2023-04-03T16:47:09;2.60;;;1.70;;
5217;SDS011;26539;51.064;6.346;2023-04-03T16:49:35;2.03;;;1.30;;
5217;SDS011;26539;51.064;6.346;2023-04-03T16:52:03;3.33;;;1.90;;
5217;SDS011;26539;51.064;6.346;2023-04-03T16:54:32;4.70;;;1.40;;
5217;SDS011;26539;51.064;6.346;2023-04-03T16:56:58;3.47;;;1.37;;
5217;SDS011;26539;51.064;6.346;2023-04-03T16:59:23;3.97;;;1.97;;
5217;SDS011;26539;51.064;6.346;2023-04-03T17:01:49;3.73;;;1.80;;
5217;SDS011;26539;51.064;6.346;2023-04-03T17:04:15;7.37;;;2.20;;
5217;SDS011;26539;51.064;6.346;2023-04-03T17:06:40;4.63;;;2.40;;
5217;SDS011;26539;51.064;6.346;2023-04-03T17:09:09;9.53;;;1.93;;